createdAt,value
2018-04-23T00:01:00.746Z,5.80
2018-04-23T00:03:28.261Z,5.80
2018-04-23T00:05:56.549Z,6.20
2018-04-23T00:08:24.805Z,5.93
2018-04-23T00:10:52.325Z,5.53
2018-04-23T00:13:19.834Z,6.77
2018-04-23T00:15:48.157Z,5.70
2018-04-23T00:18:15.672Z,6.63
2018-04-23T00:20:44.006Z,6.10
2018-04-23T00:23:11.541Z,6.30
2018-04-23T00:25:39.075Z,6.20
2018-04-23T00:28:07.339Z,5.90
2018-04-23T00:30:35.640Z,6.37
2018-04-23T00:33:03.136Z,6.57
2018-04-23T00:35:30.678Z,6.10
2018-04-23T00:37:58.198Z,5.97
2018-04-23T00:40:26.456Z,6.80
2018-04-23T00:42:54.742Z,6.57
2018-04-23T00:45:23.019Z,6.00
2018-04-23T00:47:51.293Z,6.30
2018-04-23T00:50:18.836Z,6.50
2018-04-23T00:52:46.368Z,6.33
2018-04-23T00:55:13.893Z,7.00
2018-04-23T00:57:41.392Z,6.03
2018-04-23T01:00:08.884Z,6.40
2018-04-23T01:02:37.192Z,6.40
2018-04-23T01:05:04.717Z,6.30
2018-04-23T01:07:32.264Z,6.73
2018-04-23T01:09:59.767Z,6.97
2018-04-23T01:12:27.284Z,6.50
2018-04-23T01:14:54.792Z,6.30
2018-04-23T01:17:22.304Z,6.37
2018-04-23T01:19:49.859Z,7.10
2018-04-23T01:22:17.379Z,5.93
2018-04-23T01:24:44.898Z,6.60
2018-04-23T01:27:13.173Z,6.33
2018-04-23T01:29:41.463Z,6.20
2018-04-23T01:32:09.765Z,6.67
2018-04-23T01:34:38.045Z,6.23
2018-04-23T01:37:05.564Z,6.93
2018-04-23T01:39:33.871Z,7.00
2018-04-23T01:42:01.371Z,6.67
2018-04-23T01:44:28.901Z,7.20
2018-04-23T01:46:56.424Z,6.83
2018-04-23T01:49:24.750Z,6.40
2018-04-23T01:51:52.268Z,5.73
2018-04-23T01:54:20.523Z,6.80
2018-04-23T01:56:48.830Z,6.67
2018-04-23T01:59:16.359Z,6.53
2018-04-23T02:01:43.857Z,6.43
2018-04-23T02:04:11.354Z,6.50
2018-04-23T02:06:38.866Z,6.43
2018-04-23T02:09:06.350Z,6.50
2018-04-23T02:11:34.610Z,6.47
2018-04-23T02:14:02.125Z,6.60
2018-04-23T02:16:30.393Z,6.40
2018-04-23T02:18:57.915Z,7.10
2018-04-23T02:21:25.406Z,5.90
2018-04-23T02:23:52.934Z,6.70
2018-04-23T02:26:20.439Z,7.03
2018-04-23T02:28:48.721Z,6.37
2018-04-23T02:31:17.020Z,6.60
2018-04-23T02:33:44.527Z,7.37
2018-04-23T02:36:12.069Z,6.50
2018-04-23T02:38:39.583Z,7.93
2018-04-23T02:41:07.863Z,7.37
2018-04-23T02:43:36.122Z,7.37
2018-04-23T02:46:04.435Z,7.10
2018-04-23T02:48:31.925Z,7.03
2018-04-23T02:50:59.430Z,6.47
2018-04-23T02:53:26.954Z,6.60
2018-04-23T02:55:54.542Z,6.60
2018-04-23T02:58:22.824Z,6.40
2018-04-23T03:00:51.114Z,6.63
2018-04-23T03:03:18.673Z,6.60
2018-04-23T03:05:46.175Z,6.90
2018-04-23T03:08:13.689Z,6.37
2018-04-23T03:10:41.188Z,6.30
2018-04-23T03:13:08.742Z,6.60
2018-04-23T03:15:36.232Z,6.70
2018-04-23T03:18:04.561Z,6.23
2018-04-23T03:20:32.105Z,7.17
2018-04-23T03:22:59.591Z,6.20
2018-04-23T03:25:27.134Z,7.33
2018-04-23T03:27:54.648Z,6.57
2018-04-23T03:30:22.213Z,6.60
2018-04-23T03:32:50.527Z,7.00
2018-04-23T03:35:18.058Z,6.43
2018-04-23T03:37:46.337Z,6.67
2018-04-23T03:40:14.624Z,6.67
2018-04-23T03:42:42.165Z,6.73
2018-04-23T03:45:10.437Z,6.73
2018-04-23T03:47:38.753Z,7.13
2018-04-23T03:50:07.037Z,6.50
2018-04-23T03:52:34.577Z,7.17
2018-04-23T03:55:02.162Z,7.00
2018-04-23T03:57:29.673Z,7.00
2018-04-23T03:59:57.961Z,6.70
2018-04-23T04:02:26.244Z,6.50
2018-04-23T04:04:53.760Z,6.20
2018-04-23T04:07:21.326Z,6.70
2018-04-23T04:09:48.882Z,7.13
2018-04-23T04:12:28.326Z,7.20
2018-04-23T04:15:07.792Z,6.93
2018-04-23T04:20:52.848Z,6.63
2018-04-23T04:23:20.392Z,7.07
2018-04-23T04:25:47.878Z,6.53
2018-04-23T04:28:16.198Z,7.37
2018-04-23T04:30:43.719Z,7.30
2018-04-23T04:33:11.998Z,7.50
2018-04-23T04:35:40.385Z,7.20
2018-04-23T04:38:07.833Z,7.27
2018-04-23T04:40:36.127Z,6.97
2018-04-23T04:43:03.656Z,6.33
2018-04-23T04:45:31.937Z,7.40
2018-04-23T04:47:59.472Z,6.90
2018-04-23T04:50:27.001Z,7.10
2018-04-23T04:52:54.533Z,7.77
2018-04-23T04:55:22.788Z,7.10
2018-04-23T04:57:51.110Z,7.27
2018-04-23T05:00:18.636Z,7.10
2018-04-23T05:02:46.937Z,7.40
2018-04-23T05:05:14.487Z,7.00
2018-04-23T05:07:42.001Z,6.93
2018-04-23T05:10:09.491Z,7.20
2018-04-23T05:12:37.785Z,6.90
2018-04-23T05:15:05.358Z,7.40
2018-04-23T05:17:32.878Z,7.67
2018-04-23T05:20:01.159Z,7.10
2018-04-23T05:22:29.433Z,7.30
2018-04-23T05:24:57.726Z,6.83
2018-04-23T05:27:25.982Z,6.73
2018-04-23T05:29:54.257Z,7.47
2018-04-23T05:32:22.544Z,6.90
2018-04-23T05:34:50.853Z,7.47
2018-04-23T05:37:18.394Z,7.63
2018-04-23T05:39:45.931Z,7.10
2018-04-23T05:42:13.437Z,7.00
2018-04-23T05:44:40.961Z,7.50
2018-04-23T05:47:09.250Z,7.63
2018-04-23T05:49:36.734Z,6.90
2018-04-23T05:52:04.243Z,7.17
2018-04-23T05:54:32.520Z,7.17
2018-04-23T05:57:00.815Z,8.07
2018-04-23T05:59:29.093Z,8.40
2018-04-23T06:01:56.610Z,7.67
2018-04-23T06:04:24.138Z,6.80
2018-04-23T06:06:51.662Z,7.17
2018-04-23T06:09:19.941Z,7.37
2018-04-23T06:11:47.430Z,7.93
2018-04-23T06:14:14.954Z,7.33
2018-04-23T06:16:43.210Z,7.37
2018-04-23T06:19:10.760Z,7.93
2018-04-23T06:21:38.249Z,8.30
2018-04-23T06:24:05.764Z,8.60
2018-04-23T06:26:33.284Z,7.70
2018-04-23T06:29:00.796Z,8.10
2018-04-23T06:31:28.321Z,7.87
2018-04-23T06:33:55.813Z,8.10
2018-04-23T06:36:23.334Z,8.90
2018-04-23T06:38:50.837Z,7.73
2018-04-23T06:41:18.355Z,8.23
2018-04-23T06:43:45.858Z,9.50
2018-04-23T06:46:14.187Z,9.50
2018-04-23T06:48:41.716Z,9.23
2018-04-23T06:51:09.278Z,9.50
2018-04-23T06:53:36.803Z,10.20
2018-04-23T06:56:04.306Z,10.40
2018-04-23T06:58:31.836Z,11.30
2018-04-23T07:01:00.101Z,10.27
2018-04-23T07:03:27.649Z,11.90
2018-04-23T07:05:55.153Z,11.20
2018-04-23T07:08:22.691Z,11.10
2018-04-23T07:10:50.218Z,12.17
2018-04-23T07:13:17.779Z,12.10
2018-04-23T07:15:45.338Z,12.07
2018-04-23T07:18:12.849Z,11.87
2018-04-23T07:20:40.391Z,12.40
2018-04-23T07:23:08.710Z,11.00
2018-04-23T07:25:36.219Z,11.37
2018-04-23T07:28:04.530Z,11.70
2018-04-23T07:30:32.052Z,12.13
2018-04-23T07:33:00.350Z,11.77
2018-04-23T07:35:27.889Z,12.13
2018-04-23T07:37:56.165Z,12.10
2018-04-23T07:40:24.482Z,11.83
2018-04-23T07:42:52.004Z,13.10
2018-04-23T07:45:20.283Z,13.30
2018-04-23T07:47:47.821Z,11.87
2018-04-23T07:50:15.353Z,11.13
2018-04-23T07:52:42.852Z,10.50
2018-04-23T07:55:11.168Z,10.20
2018-04-23T07:57:38.673Z,9.80
2018-04-23T08:00:06.273Z,9.13
2018-04-23T08:02:33.776Z,8.80
2018-04-23T08:05:01.347Z,9.07
2018-04-23T08:07:28.876Z,8.50
2018-04-23T08:09:56.391Z,9.50
2018-04-23T08:12:24.711Z,9.13
2018-04-23T08:14:52.237Z,10.40
2018-04-23T08:17:19.749Z,9.47
2018-04-23T08:19:47.306Z,10.13
2018-04-23T08:22:14.844Z,10.33
2018-04-23T08:24:42.375Z,9.90
2018-04-23T08:27:09.929Z,9.37
2018-04-23T08:29:38.212Z,10.07
2018-04-23T08:32:05.714Z,9.77
2018-04-23T08:34:33.241Z,10.00
2018-04-23T08:37:01.539Z,10.03
2018-04-23T08:39:29.081Z,10.60
2018-04-23T08:41:56.585Z,10.23
2018-04-23T08:44:24.124Z,10.10
2018-04-23T08:46:51.626Z,10.17
2018-04-23T08:49:19.912Z,10.33
2018-04-23T08:51:48.216Z,10.20
2018-04-23T08:54:15.759Z,9.87
2018-04-23T08:56:43.265Z,9.37
2018-04-23T08:59:10.774Z,10.93
2018-04-23T09:01:38.300Z,10.70
2018-04-23T09:04:05.804Z,10.27
2018-04-23T09:06:33.337Z,10.27
2018-04-23T09:09:01.665Z,10.20
2018-04-23T09:11:29.195Z,9.70
2018-04-23T09:13:56.741Z,10.27
2018-04-23T09:16:24.270Z,10.37
2018-04-23T09:18:51.761Z,10.87
2018-04-23T09:21:19.278Z,10.80
2018-04-23T09:23:46.776Z,11.00
2018-04-23T09:26:14.325Z,11.90
2018-04-23T09:28:42.594Z,11.63
2018-04-23T09:31:10.885Z,11.63
2018-04-23T09:33:39.176Z,10.67
2018-04-23T09:36:06.690Z,10.20
2018-04-23T09:38:34.212Z,11.07
2018-04-23T09:41:01.743Z,10.23
2018-04-23T09:43:29.287Z,10.67
2018-04-23T09:45:57.574Z,10.67
2018-04-23T09:48:25.121Z,11.60
2018-04-23T09:50:53.450Z,11.00
2018-04-23T09:53:21.467Z,10.30
2018-04-23T09:55:49.741Z,10.37
2018-04-23T09:58:18.940Z,11.03
2018-04-23T10:00:47.233Z,10.50
2018-04-23T10:03:15.528Z,10.70
2018-04-23T10:05:43.061Z,9.80
2018-04-23T10:08:11.341Z,9.80
2018-04-23T10:10:38.985Z,10.40
2018-04-23T10:13:07.269Z,10.37
2018-04-23T10:15:35.589Z,11.03
2018-04-23T10:18:03.082Z,10.03
2018-04-23T10:20:30.659Z,9.93
2018-04-23T10:22:59.143Z,10.10
2018-04-23T10:25:27.423Z,9.70
2018-04-23T10:27:55.725Z,9.17
2018-04-23T10:30:23.333Z,10.17
2018-04-23T10:32:50.917Z,9.37
2018-04-23T10:35:19.435Z,8.57
2018-04-23T10:37:47.899Z,9.10
2018-04-23T10:40:15.441Z,9.10
2018-04-23T10:42:43.742Z,9.40
2018-04-23T10:45:11.264Z,9.77
2018-04-23T10:47:39.656Z,8.97
2018-04-23T10:50:07.949Z,10.93
2018-04-23T10:52:35.455Z,9.83
2018-04-23T10:55:02.991Z,11.07
2018-04-23T10:57:30.828Z,10.63
2018-04-23T11:00:00.079Z,9.90
2018-04-23T11:02:27.712Z,10.93
2018-04-23T11:04:56.030Z,11.20
2018-04-23T11:07:23.604Z,10.70
2018-04-23T11:09:51.106Z,11.60
2018-04-23T11:12:18.633Z,10.53
2018-04-23T11:14:46.920Z,11.93
2018-04-23T11:17:14.454Z,11.57
2018-04-23T11:19:42.769Z,11.27
2018-04-23T11:22:10.279Z,11.37
2018-04-23T11:24:37.801Z,11.27
2018-04-23T11:27:05.341Z,12.37
2018-04-23T11:29:32.921Z,11.47
2018-04-23T11:32:00.446Z,11.70
2018-04-23T11:34:28.000Z,10.93
2018-04-23T11:36:56.267Z,10.10
2018-04-23T11:39:24.589Z,9.50
2018-04-23T11:41:52.139Z,9.60
2018-04-23T11:44:19.685Z,9.77
2018-04-23T11:46:47.276Z,9.47
2018-04-23T11:49:14.786Z,9.27
2018-04-23T11:51:43.105Z,8.50
2018-04-23T11:54:10.648Z,8.83
2018-04-23T11:56:38.201Z,9.23
2018-04-23T11:59:05.687Z,9.43
2018-04-23T12:01:33.242Z,9.33
2018-04-23T12:04:00.766Z,9.00
2018-04-23T12:06:29.071Z,8.97
2018-04-23T12:08:56.590Z,8.20
2018-04-23T12:11:24.876Z,8.97
2018-04-23T12:13:53.181Z,8.40
2018-04-23T12:16:20.696Z,8.90
2018-04-23T12:18:48.222Z,8.63
2018-04-23T12:21:15.773Z,7.53
2018-04-23T12:23:43.291Z,7.60
2018-04-23T12:26:11.559Z,7.93
2018-04-23T12:28:39.920Z,8.53
2018-04-23T12:31:07.433Z,7.83
2018-04-23T12:33:34.939Z,7.00
2018-04-23T12:36:02.486Z,7.07
2018-04-23T12:38:30.020Z,7.77
2018-04-23T12:40:57.540Z,7.30
2018-04-23T12:43:25.119Z,7.27
2018-04-23T12:45:52.675Z,6.60
2018-04-23T12:48:20.196Z,7.40
2018-04-23T12:50:47.733Z,7.40
2018-04-23T12:53:15.296Z,7.37
2018-04-23T12:55:42.785Z,7.40
2018-04-23T12:58:11.120Z,7.20
2018-04-23T13:00:38.637Z,7.40
2018-04-23T13:03:06.179Z,7.30
2018-04-23T13:05:33.686Z,7.30
2018-04-23T13:08:01.241Z,8.27
2018-04-23T13:10:28.749Z,8.27
2018-04-23T13:12:57.020Z,8.03
2018-04-23T13:15:24.530Z,7.70
2018-04-23T13:17:52.026Z,7.80
2018-04-23T13:20:19.578Z,8.27
2018-04-23T13:22:47.166Z,7.80
2018-04-23T13:25:15.486Z,7.80
2018-04-23T13:27:43.070Z,8.37
2018-04-23T13:30:10.597Z,8.00
2018-04-23T13:32:38.134Z,7.60
2018-04-23T13:35:06.436Z,7.97
2018-04-23T13:37:33.944Z,7.43
2018-04-23T13:40:01.459Z,8.80
2018-04-23T13:42:29.009Z,7.53
2018-04-23T13:44:56.553Z,8.07
2018-04-23T13:47:24.102Z,8.93
2018-04-23T13:49:52.361Z,7.83
2018-04-23T13:52:20.665Z,7.97
2018-04-23T13:54:48.927Z,8.47
2018-04-23T13:57:17.242Z,9.70
2018-04-23T13:59:44.762Z,8.30
2018-04-23T14:02:13.089Z,8.83
2018-04-23T14:04:40.632Z,8.43
2018-04-23T14:07:08.163Z,8.63
2018-04-23T14:09:36.498Z,9.23
2018-04-23T14:12:04.008Z,8.80
2018-04-23T14:14:31.553Z,9.00
2018-04-23T14:16:59.838Z,8.53
2018-04-23T14:19:28.140Z,8.47
2018-04-23T14:21:55.683Z,7.97
2018-04-23T14:24:23.205Z,7.80
2018-04-23T14:26:50.720Z,8.90
2018-04-23T14:29:18.240Z,8.10
2018-04-23T14:31:46.525Z,8.10
2018-04-23T14:34:14.797Z,8.40
2018-04-23T14:36:43.134Z,8.07
2018-04-23T14:39:10.642Z,8.70
2018-04-23T14:41:38.925Z,9.00
2018-04-23T14:44:06.432Z,8.40
2018-04-23T14:46:33.932Z,8.03
2018-04-23T14:49:01.491Z,7.67
2018-04-23T14:51:29.034Z,7.93
2018-04-23T14:53:57.377Z,7.63
2018-04-23T14:56:24.896Z,6.70
2018-04-23T14:58:53.206Z,7.00
2018-04-23T15:01:20.733Z,6.93
2018-04-23T15:03:48.268Z,6.60
2018-04-23T15:06:16.557Z,6.10
2018-04-23T15:08:44.836Z,6.33
2018-04-23T15:11:12.341Z,5.90
2018-04-23T15:13:39.873Z,6.37
2018-04-23T15:16:07.390Z,6.40
2018-04-23T15:18:35.689Z,5.60
2018-04-23T15:21:04.007Z,5.47
2018-04-23T15:23:31.508Z,5.87
2018-04-23T15:25:59.059Z,5.93
2018-04-23T15:28:26.552Z,5.90
2018-04-23T15:30:54.103Z,5.63
2018-04-23T15:33:22.373Z,6.20
2018-04-23T15:35:50.664Z,6.17
2018-04-23T15:38:18.228Z,7.10
2018-04-23T15:40:45.744Z,5.73
2018-04-23T15:43:13.300Z,5.97
2018-04-23T15:45:40.829Z,5.70
2018-04-23T15:48:08.353Z,6.17
2018-04-23T15:50:35.893Z,5.63
2018-04-23T15:53:04.174Z,5.80
2018-04-23T15:55:33.103Z,5.90
2018-04-23T15:58:00.634Z,6.10
2018-04-23T16:00:28.937Z,5.93
2018-04-23T16:02:56.444Z,5.33
2018-04-23T16:05:24.755Z,5.70
2018-04-23T16:07:52.285Z,5.40
2018-04-23T16:10:20.566Z,5.73
2018-04-23T16:12:48.880Z,5.70
2018-04-23T16:15:16.416Z,5.50
2018-04-23T16:17:43.929Z,5.67
2018-04-23T16:20:11.462Z,5.50
2018-04-23T16:22:38.997Z,6.03
2018-04-23T16:25:07.293Z,5.67
2018-04-23T16:27:34.867Z,5.40
2018-04-23T16:30:02.432Z,5.57
2018-04-23T16:32:30.708Z,6.07
2018-04-23T16:34:58.246Z,6.03
2018-04-23T16:37:25.810Z,6.90
2018-04-23T16:39:53.315Z,5.77
2018-04-23T16:42:21.647Z,5.63
2018-04-23T16:44:50.545Z,5.80
2018-04-23T16:47:18.251Z,6.23
2018-04-23T16:49:45.787Z,5.57
2018-04-23T16:52:13.289Z,5.40
2018-04-23T16:54:41.591Z,5.90
2018-04-23T16:57:09.130Z,5.90
2018-04-23T16:59:37.390Z,6.03
2018-04-23T17:02:05.702Z,5.93
2018-04-23T17:04:33.241Z,6.10
2018-04-23T17:07:01.534Z,6.33
2018-04-23T17:09:29.050Z,4.93
2018-04-23T17:11:56.629Z,5.33
2018-04-23T17:14:24.913Z,5.53
2018-04-23T17:16:53.206Z,6.07
2018-04-23T17:19:20.775Z,6.80
2018-04-23T17:21:48.287Z,6.00
2018-04-23T17:24:16.594Z,5.97
2018-04-23T17:26:44.105Z,6.20
2018-04-23T17:29:11.621Z,6.40
2018-04-23T17:31:39.169Z,5.77
2018-04-23T17:34:06.677Z,6.10
2018-04-23T17:36:34.298Z,5.83
2018-04-23T17:39:02.553Z,6.83
2018-04-23T17:41:30.866Z,7.03
2018-04-23T17:43:58.389Z,6.47
2018-04-23T17:46:26.714Z,7.10
2018-04-23T17:48:54.227Z,6.83
2018-04-23T17:51:22.515Z,6.47
2018-04-23T17:53:50.028Z,6.40
2018-04-23T17:56:17.606Z,6.70
2018-04-23T17:58:45.948Z,6.30
2018-04-23T18:01:13.502Z,6.93
2018-04-23T18:03:41.030Z,6.40
2018-04-23T18:06:08.714Z,6.90
2018-04-23T18:08:36.281Z,6.80
2018-04-23T18:11:03.812Z,7.10
2018-04-23T18:13:31.377Z,6.80
2018-04-23T18:15:59.027Z,6.67
2018-04-23T18:18:26.605Z,6.87
2018-04-23T18:20:54.147Z,7.00
2018-04-23T18:23:22.433Z,7.17
2018-04-23T18:25:49.994Z,6.70
2018-04-23T18:28:17.542Z,7.17
2018-04-23T18:30:45.110Z,6.33
2018-04-23T18:33:12.621Z,6.47
2018-04-23T18:35:40.146Z,7.57
2018-04-23T18:38:07.685Z,6.07
2018-04-23T18:40:35.195Z,7.20
2018-04-23T18:43:02.964Z,7.73
2018-04-23T18:45:31.457Z,7.83
2018-04-23T18:47:59.820Z,7.20
2018-04-23T18:50:27.332Z,7.90
2018-04-23T18:52:54.857Z,6.47
2018-04-23T18:55:23.287Z,7.20
2018-04-23T18:57:50.868Z,7.43
2018-04-23T19:00:18.497Z,7.47
2018-04-23T19:02:46.140Z,6.97
2018-04-23T19:05:13.692Z,7.20
2018-04-23T19:07:41.208Z,6.40
2018-04-23T19:10:08.823Z,6.87
2018-04-23T19:12:36.642Z,6.60
2018-04-23T19:15:04.967Z,6.20
2018-04-23T19:17:32.498Z,6.37
2018-04-23T19:20:00.028Z,6.60
2018-04-23T19:22:27.643Z,6.60
2018-04-23T19:24:55.216Z,6.77
2018-04-23T19:27:22.802Z,7.30
2018-04-23T19:29:51.090Z,7.30
2018-04-23T19:32:18.728Z,6.70
2018-04-23T19:34:46.285Z,6.37
2018-04-23T19:37:13.853Z,7.23
2018-04-23T19:39:41.469Z,7.60
2018-04-23T19:42:09.809Z,6.87
2018-04-23T19:44:37.361Z,6.80
2018-04-23T19:47:04.961Z,7.27
2018-04-23T19:49:33.329Z,6.90
2018-04-23T19:52:00.878Z,7.07
2018-04-23T19:54:28.637Z,7.63
2018-04-23T19:56:56.212Z,7.80
2018-04-23T19:59:23.819Z,7.23
2018-04-23T20:01:51.459Z,7.63
2018-04-23T20:04:19.272Z,7.37
2018-04-23T20:06:46.903Z,8.73
2018-04-23T20:09:14.459Z,7.57
2018-04-23T20:11:42.050Z,7.87
2018-04-23T20:14:09.749Z,9.20
2018-04-23T20:16:38.048Z,8.13
2018-04-23T20:19:05.703Z,8.20
2018-04-23T20:21:34.032Z,8.77
2018-04-23T20:24:01.649Z,8.83
2018-04-23T20:26:29.219Z,8.70
2018-04-23T20:28:56.746Z,8.90
2018-04-23T20:31:25.158Z,8.70
2018-04-23T20:33:52.943Z,9.07
2018-04-23T20:36:20.579Z,8.73
2018-04-23T20:38:48.154Z,8.73
2018-04-23T20:41:15.840Z,8.90
2018-04-23T20:43:43.477Z,9.40
2018-04-23T20:46:11.007Z,9.00
2018-04-23T20:48:38.538Z,9.40
2018-04-23T20:51:06.107Z,9.40
2018-04-23T20:53:33.628Z,8.67
2018-04-23T20:56:01.145Z,9.00
2018-04-23T20:58:28.685Z,9.17
2018-04-23T21:00:56.987Z,9.43
2018-04-23T21:03:24.521Z,9.70
2018-04-23T21:05:52.842Z,9.60
2018-04-23T21:08:20.413Z,10.70
2018-04-23T21:10:47.963Z,9.60
2018-04-23T21:13:15.546Z,9.73
2018-04-23T21:15:43.068Z,19.73
2018-04-23T21:18:10.605Z,25.40
2018-04-23T21:20:38.906Z,10.03
2018-04-23T21:23:06.433Z,10.80
2018-04-23T21:25:33.960Z,11.67
2018-04-23T21:28:01.482Z,10.83
2018-04-23T21:30:28.996Z,10.40
2018-04-23T21:32:56.539Z,11.53
2018-04-23T21:35:24.097Z,11.00
2018-04-23T21:37:51.609Z,11.10
2018-04-23T21:40:19.144Z,11.20
2018-04-23T21:42:47.434Z,11.50
2018-04-23T21:45:14.986Z,11.27
2018-04-23T21:47:43.288Z,12.03
2018-04-23T21:50:10.825Z,12.40
2018-04-23T21:52:38.395Z,12.03
2018-04-23T21:55:06.671Z,11.97
2018-04-23T21:57:34.977Z,12.00
2018-04-23T22:00:02.507Z,12.57
2018-04-23T22:02:30.052Z,12.07
2018-04-23T22:04:58.331Z,12.90
2018-04-23T22:07:26.649Z,11.87
2018-04-23T22:09:54.153Z,11.97
2018-04-23T22:12:21.663Z,13.30
2018-04-23T22:14:49.217Z,12.93
2018-04-23T22:17:16.733Z,12.37
2018-04-23T22:19:44.253Z,13.50
2018-04-23T22:22:11.782Z,13.70
2018-04-23T22:24:39.338Z,12.60
2018-04-23T22:27:06.854Z,13.70
2018-04-23T22:29:34.393Z,12.57
2018-04-23T22:32:01.912Z,13.57
2018-04-23T22:34:29.453Z,13.27
2018-04-23T22:36:57.800Z,13.37
2018-04-23T22:39:25.321Z,14.37
2018-04-23T22:41:52.872Z,14.50
2018-04-23T22:44:20.394Z,13.80
2018-04-23T22:46:47.961Z,14.80
2018-04-23T22:49:16.246Z,13.30
2018-04-23T22:51:44.582Z,13.50
2018-04-23T22:54:12.839Z,14.03
2018-04-23T22:56:40.363Z,14.47
2018-04-23T22:59:08.645Z,13.50
2018-04-23T23:01:36.191Z,14.00
2018-04-23T23:04:04.518Z,14.30
2018-04-23T23:06:32.025Z,14.20
2018-04-23T23:09:00.330Z,14.63
2018-04-23T23:11:27.926Z,14.90
2018-04-23T23:13:55.467Z,14.87
2018-04-23T23:16:23.002Z,14.70
2018-04-23T23:18:50.560Z,14.33
2018-04-23T23:21:18.919Z,14.00
2018-04-23T23:23:46.437Z,15.43
2018-04-23T23:26:13.954Z,15.90
2018-04-23T23:28:42.270Z,16.13
2018-04-23T23:31:09.810Z,15.73
2018-04-23T23:33:37.310Z,15.30
2018-04-23T23:36:04.867Z,15.60
2018-04-23T23:38:32.481Z,16.90
2018-04-23T23:41:00.765Z,15.90
2018-04-23T23:43:28.294Z,15.50
2018-04-23T23:45:55.881Z,16.20
2018-04-23T23:48:23.457Z,17.13
2018-04-23T23:50:50.961Z,17.20
2018-04-23T23:53:18.484Z,16.57
2018-04-23T23:55:46.030Z,19.10
2018-04-23T23:58:13.564Z,18.47
